sensor_id;sensor_type;location;lat;lon;timestamp;temperature;humidity
69823;SHT31;57119;52.516;13.508;2023-11-19T00:01:26;4.19;99.99
69823;SHT31;57119;52.516;13.508;2023-11-19T00:03:51;4.18;99.99
69823;SHT31;57119;52.516;13.508;2023-11-19T00:06:16;4.19;99.99
69823;SHT31;57119;52.516;13.508;2023-11-19T00:08:42;4.16;99.99
69823;SHT31;57119;52.516;13.508;2023-11-19T00:11:08;4.14;99.99
69823;SHT31;57119;52.516;13.508;2023-11-19T00:13:34;4.11;99.99
69823;SHT31;57119;52.516;13.508;2023-11-19T00:15:59;4.09;99.99
69823;SHT31;57119;52.516;13.508;2023-11-19T00:18:25;4.14;99.99
69823;SHT31;57119;52.516;13.508;2023-11-19T00:20:50;4.06;99.99
69823;SHT31;57119;52.516;13.508;2023-11-19T00:23:15;4.12;99.99
69823;SHT31;57119;52.516;13.508;2023-11-19T00:25:41;4.08;99.99
69823;SHT31;57119;52.516;13.508;2023-11-19T00:28:06;4.14;99.99
69823;SHT31;57119;52.516;13.508;2023-11-19T00:30:32;4.12;99.99
69823;SHT31;57119;52.516;13.508;2023-11-19T00:32:57;4.15;99.99
69823;SHT31;57119;52.516;13.508;2023-11-19T00:35:24;4.16;99.99
69823;SHT31;57119;52.516;13.508;2023-11-19T00:37:49;4.12;99.99
69823;SHT31;57119;52.516;13.508;2023-11-19T00:40:15;4.15;99.99
69823;SHT31;57119;52.516;13.508;2023-11-19T00:42:43;4.14;99.99
69823;SHT31;57119;52.516;13.508;2023-11-19T00:45:08;4.15;99.99
69823;SHT31;57119;52.516;13.508;2023-11-19T00:47:35;4.21;99.99
69823;SHT31;57119;52.516;13.508;2023-11-19T00:50:01;4.14;99.99
69823;SHT31;57119;52.516;13.508;2023-11-19T00:52:26;4.19;99.99
69823;SHT31;57119;52.516;13.508;2023-11-19T00:54:52;4.21;99.99
69823;SHT31;57119;52.516;13.508;2023-11-19T00:57:17;4.24;99.99
69823;SHT31;57119;52.516;13.508;2023-11-19T00:59:43;4.21;99.99
69823;SHT31;57119;52.516;13.508;2023-11-19T01:02:08;4.21;99.99
69823;SHT31;57119;52.516;13.508;2023-11-19T01:04:34;4.19;99.99
69823;SHT31;57119;52.516;13.508;2023-11-19T01:07:04;4.24;99.99
69823;SHT31;57119;52.516;13.508;2023-11-19T01:09:31;4.25;99.99
69823;SHT31;57119;52.516;13.508;2023-11-19T01:12:00;4.29;99.99
69823;SHT31;57119;52.516;13.508;2023-11-19T01:14:26;4.29;99.99
69823;SHT31;57119;52.516;13.508;2023-11-19T01:16:52;4.31;99.99
69823;SHT31;57119;52.516;13.508;2023-11-19T01:19:19;4.26;99.99
69823;SHT31;57119;52.516;13.508;2023-11-19T01:21:45;4.29;99.99
69823;SHT31;57119;52.516;13.508;2023-11-19T01:24:10;4.33;99.99
69823;SHT31;57119;52.516;13.508;2023-11-19T01:26:38;4.35;99.99
69823;SHT31;57119;52.516;13.508;2023-11-19T01:29:03;4.36;99.99
69823;SHT31;57119;52.516;13.508;2023-11-19T01:31:30;4.33;99.99
69823;SHT31;57119;52.516;13.508;2023-11-19T01:33:57;4.39;99.85
69823;SHT31;57119;52.516;13.508;2023-11-19T01:36:22;4.45;99.80
69823;SHT31;57119;52.516;13.508;2023-11-19T01:38:48;4.45;99.48
69823;SHT31;57119;52.516;13.508;2023-11-19T01:41:14;4.49;99.33
69823;SHT31;57119;52.516;13.508;2023-11-19T01:43:39;4.52;98.99
69823;SHT31;57119;52.516;13.508;2023-11-19T01:46:08;4.59;98.75
69823;SHT31;57119;52.516;13.508;2023-11-19T01:48:40;4.62;98.94
69823;SHT31;57119;52.516;13.508;2023-11-19T01:51:06;4.59;98.87
69823;SHT31;57119;52.516;13.508;2023-11-19T01:53:34;4.62;98.95
69823;SHT31;57119;52.516;13.508;2023-11-19T01:56:00;4.60;98.97
69823;SHT31;57119;52.516;13.508;2023-11-19T01:58:26;4.62;99.28
69823;SHT31;57119;52.516;13.508;2023-11-19T02:00:51;4.56;99.31
69823;SHT31;57119;52.516;13.508;2023-11-19T02:03:17;4.63;98.80
69823;SHT31;57119;52.516;13.508;2023-11-19T02:05:42;4.64;99.25
69823;SHT31;57119;52.516;13.508;2023-11-19T02:08:08;4.63;99.27
69823;SHT31;57119;52.516;13.508;2023-11-19T02:10:33;4.62;99.24
69823;SHT31;57119;52.516;13.508;2023-11-19T02:12:59;4.63;99.67
69823;SHT31;57119;52.516;13.508;2023-11-19T02:15:25;4.56;99.99
69823;SHT31;57119;52.516;13.508;2023-11-19T02:17:51;4.60;99.99
69823;SHT31;57119;52.516;13.508;2023-11-19T02:20:17;4.60;99.99
69823;SHT31;57119;52.516;13.508;2023-11-19T02:22:45;4.56;99.99
69823;SHT31;57119;52.516;13.508;2023-11-19T02:25:20;4.57;99.99
69823;SHT31;57119;52.516;13.508;2023-11-19T02:27:53;4.56;99.99
69823;SHT31;57119;52.516;13.508;2023-11-19T02:30:23;4.60;99.99
69823;SHT31;57119;52.516;13.508;2023-11-19T02:32:55;4.57;99.99
69823;SHT31;57119;52.516;13.508;2023-11-19T02:35:23;4.56;99.99
69823;SHT31;57119;52.516;13.508;2023-11-19T02:37:48;4.60;99.99
69823;SHT31;57119;52.516;13.508;2023-11-19T02:40:14;4.64;99.99
69823;SHT31;57119;52.516;13.508;2023-11-19T02:42:39;4.60;99.99
69823;SHT31;57119;52.516;13.508;2023-11-19T02:45:05;4.69;99.99
69823;SHT31;57119;52.516;13.508;2023-11-19T02:47:32;4.69;99.99
69823;SHT31;57119;52.516;13.508;2023-11-19T02:49:58;4.66;99.99
69823;SHT31;57119;52.516;13.508;2023-11-19T02:52:24;4.67;99.99
69823;SHT31;57119;52.516;13.508;2023-11-19T02:54:50;4.73;99.99
69823;SHT31;57119;52.516;13.508;2023-11-19T02:57:16;4.69;99.99
69823;SHT31;57119;52.516;13.508;2023-11-19T02:59:44;4.72;99.99
69823;SHT31;57119;52.516;13.508;2023-11-19T03:02:10;4.72;99.99
69823;SHT31;57119;52.516;13.508;2023-11-19T03:04:41;4.73;99.99
69823;SHT31;57119;52.516;13.508;2023-11-19T03:07:08;4.77;99.99
69823;SHT31;57119;52.516;13.508;2023-11-19T03:09:33;4.84;99.99
69823;SHT31;57119;52.516;13.508;2023-11-19T03:12:00;4.91;99.87
69823;SHT31;57119;52.516;13.508;2023-11-19T03:14:25;5.00;99.35
69823;SHT31;57119;52.516;13.508;2023-11-19T03:16:51;5.02;99.33
69823;SHT31;57119;52.516;13.508;2023-11-19T03:19:17;5.01;99.50
69823;SHT31;57119;52.516;13.508;2023-11-19T03:21:42;5.04;99.33
69823;SHT31;57119;52.516;13.508;2023-11-19T03:24:07;5.05;99.29
69823;SHT31;57119;52.516;13.508;2023-11-19T03:26:34;5.08;99.32
69823;SHT31;57119;52.516;13.508;2023-11-19T03:28:59;5.14;98.90
69823;SHT31;57119;52.516;13.508;2023-11-19T03:31:24;5.12;99.11
69823;SHT31;57119;52.516;13.508;2023-11-19T03:33:51;5.11;99.31
69823;SHT31;57119;52.516;13.508;2023-11-19T03:36:16;5.14;99.31
69823;SHT31;57119;52.516;13.508;2023-11-19T03:38:41;5.20;99.39
69823;SHT31;57119;52.516;13.508;2023-11-19T03:41:11;5.12;99.49
69823;SHT31;57119;52.516;13.508;2023-11-19T03:43:37;5.05;99.99
69823;SHT31;57119;52.516;13.508;2023-11-19T03:46:02;4.93;99.99
69823;SHT31;57119;52.516;13.508;2023-11-19T03:48:27;4.84;99.99
69823;SHT31;57119;52.516;13.508;2023-11-19T03:50:53;4.70;99.99
69823;SHT31;57119;52.516;13.508;2023-11-19T03:53:18;4.72;99.99
69823;SHT31;57119;52.516;13.508;2023-11-19T03:55:44;4.62;99.99
69823;SHT31;57119;52.516;13.508;2023-11-19T03:58:09;4.53;99.99
69823;SHT31;57119;52.516;13.508;2023-11-19T04:00:34;4.48;99.99
69823;SHT31;57119;52.516;13.508;2023-11-19T04:03:00;4.46;99.99
69823;SHT31;57119;52.516;13.508;2023-11-19T04:05:25;4.43;99.99
69823;SHT31;57119;52.516;13.508;2023-11-19T04:07:51;4.42;99.99
69823;SHT31;57119;52.516;13.508;2023-11-19T04:10:16;4.41;99.99
69823;SHT31;57119;52.516;13.508;2023-11-19T04:12:42;4.36;99.99
69823;SHT31;57119;52.516;13.508;2023-11-19T04:15:08;4.39;99.99
69823;SHT31;57119;52.516;13.508;2023-11-19T04:17:34;4.33;99.99
69823;SHT31;57119;52.516;13.508;2023-11-19T04:19:59;4.33;99.99
69823;SHT31;57119;52.516;13.508;2023-11-19T04:22:24;4.32;99.99
69823;SHT31;57119;52.516;13.508;2023-11-19T04:24:50;4.31;99.99
69823;SHT31;57119;52.516;13.508;2023-11-19T04:27:15;4.29;99.99
69823;SHT31;57119;52.516;13.508;2023-11-19T04:29:41;4.29;99.99
69823;SHT31;57119;52.516;13.508;2023-11-19T04:32:06;4.24;99.99
69823;SHT31;57119;52.516;13.508;2023-11-19T04:34:32;4.29;99.99
69823;SHT31;57119;52.516;13.508;2023-11-19T04:36:57;4.28;99.99
69823;SHT31;57119;52.516;13.508;2023-11-19T04:39:26;4.32;99.99
69823;SHT31;57119;52.516;13.508;2023-11-19T04:41:52;4.32;99.99
69823;SHT31;57119;52.516;13.508;2023-11-19T04:44:18;4.29;99.99
69823;SHT31;57119;52.516;13.508;2023-11-19T04:46:44;4.29;99.99
69823;SHT31;57119;52.516;13.508;2023-11-19T04:49:10;4.28;99.99
69823;SHT31;57119;52.516;13.508;2023-11-19T04:51:43;4.31;99.99
69823;SHT31;57119;52.516;13.508;2023-11-19T04:54:09;4.25;99.99
69823;SHT31;57119;52.516;13.508;2023-11-19T04:56:35;4.26;99.99
69823;SHT31;57119;52.516;13.508;2023-11-19T04:59:02;4.22;99.99
69823;SHT31;57119;52.516;13.508;2023-11-19T05:01:28;4.25;99.99
69823;SHT31;57119;52.516;13.508;2023-11-19T05:03:53;4.19;99.99
69823;SHT31;57119;52.516;13.508;2023-11-19T05:06:18;4.18;99.99
69823;SHT31;57119;52.516;13.508;2023-11-19T05:08:45;4.22;99.99
69823;SHT31;57119;52.516;13.508;2023-11-19T05:11:11;4.18;99.99
69823;SHT31;57119;52.516;13.508;2023-11-19T05:13:37;4.18;99.99
69823;SHT31;57119;52.516;13.508;2023-11-19T05:16:03;4.21;99.99
69823;SHT31;57119;52.516;13.508;2023-11-19T05:18:29;4.15;99.99
69823;SHT31;57119;52.516;13.508;2023-11-19T05:20:54;4.18;99.99
69823;SHT31;57119;52.516;13.508;2023-11-19T05:23:19;4.15;99.99
69823;SHT31;57119;52.516;13.508;2023-11-19T05:25:45;4.22;99.99
69823;SHT31;57119;52.516;13.508;2023-11-19T05:28:11;4.22;99.99
69823;SHT31;57119;52.516;13.508;2023-11-19T05:30:36;4.19;99.99
69823;SHT31;57119;52.516;13.508;2023-11-19T05:33:01;4.24;99.99
69823;SHT31;57119;52.516;13.508;2023-11-19T05:35:27;4.21;99.99
69823;SHT31;57119;52.516;13.508;2023-11-19T05:37:52;4.26;99.99
69823;SHT31;57119;52.516;13.508;2023-11-19T05:40:18;4.28;99.99
69823;SHT31;57119;52.516;13.508;2023-11-19T05:42:45;4.26;99.99
69823;SHT31;57119;52.516;13.508;2023-11-19T05:45:11;4.26;99.99
69823;SHT31;57119;52.516;13.508;2023-11-19T05:47:37;4.26;99.99
69823;SHT31;57119;52.516;13.508;2023-11-19T05:50:03;4.26;99.99
69823;SHT31;57119;52.516;13.508;2023-11-19T05:52:31;4.32;99.99
69823;SHT31;57119;52.516;13.508;2023-11-19T05:55:00;4.28;99.99
69823;SHT31;57119;52.516;13.508;2023-11-19T05:57:27;4.29;99.99
69823;SHT31;57119;52.516;13.508;2023-11-19T05:59:54;4.35;99.99
69823;SHT31;57119;52.516;13.508;2023-11-19T06:02:20;4.33;99.99
69823;SHT31;57119;52.516;13.508;2023-11-19T06:04:45;4.29;99.99
69823;SHT31;57119;52.516;13.508;2023-11-19T06:07:13;4.33;99.99
69823;SHT31;57119;52.516;13.508;2023-11-19T06:09:38;4.32;99.99
69823;SHT31;57119;52.516;13.508;2023-11-19T06:12:05;4.33;99.99
69823;SHT31;57119;52.516;13.508;2023-11-19T06:14:31;4.38;99.99
69823;SHT31;57119;52.516;13.508;2023-11-19T06:16:57;4.45;99.99
69823;SHT31;57119;52.516;13.508;2023-11-19T06:19:22;4.41;99.99
69823;SHT31;57119;52.516;13.508;2023-11-19T06:21:49;4.39;99.99
69823;SHT31;57119;52.516;13.508;2023-11-19T06:24:15;4.42;99.99
69823;SHT31;57119;52.516;13.508;2023-11-19T06:26:40;4.43;99.99
69823;SHT31;57119;52.516;13.508;2023-11-19T06:29:06;4.46;99.99
69823;SHT31;57119;52.516;13.508;2023-11-19T06:31:31;4.46;99.99
69823;SHT31;57119;52.516;13.508;2023-11-19T06:33:56;4.45;99.99
69823;SHT31;57119;52.516;13.508;2023-11-19T06:36:22;4.43;99.99
69823;SHT31;57119;52.516;13.508;2023-11-19T06:38:47;4.56;99.99
69823;SHT31;57119;52.516;13.508;2023-11-19T06:41:13;4.49;99.99
69823;SHT31;57119;52.516;13.508;2023-11-19T06:43:38;4.52;99.99
69823;SHT31;57119;52.516;13.508;2023-11-19T06:46:04;4.53;99.99
69823;SHT31;57119;52.516;13.508;2023-11-19T06:48:33;4.59;99.99
69823;SHT31;57119;52.516;13.508;2023-11-19T06:50:59;4.59;99.99
69823;SHT31;57119;52.516;13.508;2023-11-19T06:53:25;4.57;99.99
69823;SHT31;57119;52.516;13.508;2023-11-19T06:55:50;4.59;99.99
69823;SHT31;57119;52.516;13.508;2023-11-19T06:58:16;4.62;99.99
69823;SHT31;57119;52.516;13.508;2023-11-19T07:00:43;4.63;99.99
69823;SHT31;57119;52.516;13.508;2023-11-19T07:03:08;4.64;99.99
69823;SHT31;57119;52.516;13.508;2023-11-19T07:05:36;4.66;99.99
69823;SHT31;57119;52.516;13.508;2023-11-19T07:08:03;4.67;99.99
69823;SHT31;57119;52.516;13.508;2023-11-19T07:10:29;4.69;99.99
69823;SHT31;57119;52.516;13.508;2023-11-19T07:12:56;4.73;99.99
69823;SHT31;57119;52.516;13.508;2023-11-19T07:15:21;4.77;99.99
69823;SHT31;57119;52.516;13.508;2023-11-19T07:17:46;4.79;99.99
69823;SHT31;57119;52.516;13.508;2023-11-19T07:20:13;4.76;99.99
69823;SHT31;57119;52.516;13.508;2023-11-19T07:22:43;4.76;99.99
69823;SHT31;57119;52.516;13.508;2023-11-19T07:25:12;4.85;99.99
69823;SHT31;57119;52.516;13.508;2023-11-19T07:27:38;4.80;99.99
69823;SHT31;57119;52.516;13.508;2023-11-19T07:30:04;4.84;99.99
69823;SHT31;57119;52.516;13.508;2023-11-19T07:32:30;4.87;99.99
69823;SHT31;57119;52.516;13.508;2023-11-19T07:34:56;4.85;99.99
69823;SHT31;57119;52.516;13.508;2023-11-19T07:37:21;4.88;99.99
69823;SHT31;57119;52.516;13.508;2023-11-19T07:39:47;4.94;99.99
69823;SHT31;57119;52.516;13.508;2023-11-19T07:42:13;5.01;99.99
69823;SHT31;57119;52.516;13.508;2023-11-19T07:44:38;5.11;99.99
69823;SHT31;57119;52.516;13.508;2023-11-19T07:47:03;5.17;99.99
69823;SHT31;57119;52.516;13.508;2023-11-19T07:49:29;5.20;99.99
69823;SHT31;57119;52.516;13.508;2023-11-19T07:51:56;5.21;99.99
69823;SHT31;57119;52.516;13.508;2023-11-19T07:54:21;5.22;99.99
69823;SHT31;57119;52.516;13.508;2023-11-19T07:56:47;5.17;99.99
69823;SHT31;57119;52.516;13.508;2023-11-19T07:59:12;5.21;99.99
69823;SHT31;57119;52.516;13.508;2023-11-19T08:01:37;5.28;99.99
69823;SHT31;57119;52.516;13.508;2023-11-19T08:04:03;5.24;99.99
69823;SHT31;57119;52.516;13.508;2023-11-19T08:06:28;5.34;99.99
69823;SHT31;57119;52.516;13.508;2023-11-19T08:08:54;5.29;99.99
69823;SHT31;57119;52.516;13.508;2023-11-19T08:11:19;5.39;99.99
69823;SHT31;57119;52.516;13.508;2023-11-19T08:13:45;5.38;99.99
69823;SHT31;57119;52.516;13.508;2023-11-19T08:16:10;5.35;99.99
69823;SHT31;57119;52.516;13.508;2023-11-19T08:18:36;5.38;99.99
69823;SHT31;57119;52.516;13.508;2023-11-19T08:21:01;5.42;99.99
69823;SHT31;57119;52.516;13.508;2023-11-19T08:23:30;5.41;99.99
69823;SHT31;57119;52.516;13.508;2023-11-19T08:25:55;5.52;99.99
69823;SHT31;57119;52.516;13.508;2023-11-19T08:28:21;5.46;99.99
69823;SHT31;57119;52.516;13.508;2023-11-19T08:30:46;5.49;99.99
69823;SHT31;57119;52.516;13.508;2023-11-19T08:33:12;5.50;99.99
69823;SHT31;57119;52.516;13.508;2023-11-19T08:35:37;5.56;99.99
69823;SHT31;57119;52.516;13.508;2023-11-19T08:38:02;5.66;99.99
69823;SHT31;57119;52.516;13.508;2023-11-19T08:40:28;5.71;99.99
69823;SHT31;57119;52.516;13.508;2023-11-19T08:42:55;5.73;99.99
69823;SHT31;57119;52.516;13.508;2023-11-19T08:45:21;5.69;99.99
69823;SHT31;57119;52.516;13.508;2023-11-19T08:47:46;5.69;99.99
69823;SHT31;57119;52.516;13.508;2023-11-19T08:50:12;5.87;99.99
69823;SHT31;57119;52.516;13.508;2023-11-19T08:52:37;5.89;99.99
69823;SHT31;57119;52.516;13.508;2023-11-19T08:55:04;5.90;99.99
69823;SHT31;57119;52.516;13.508;2023-11-19T08:57:31;6.06;99.99
69823;SHT31;57119;52.516;13.508;2023-11-19T08:59:56;6.46;99.99
69823;SHT31;57119;52.516;13.508;2023-11-19T09:02:21;6.46;99.99
69823;SHT31;57119;52.516;13.508;2023-11-19T09:04:47;6.42;99.99
69823;SHT31;57119;52.516;13.508;2023-11-19T09:07:12;6.42;99.99
69823;SHT31;57119;52.516;13.508;2023-11-19T09:09:38;6.50;99.99
69823;SHT31;57119;52.516;13.508;2023-11-19T09:12:03;6.42;99.99
69823;SHT31;57119;52.516;13.508;2023-11-19T09:14:29;6.46;99.99
69823;SHT31;57119;52.516;13.508;2023-11-19T09:16:56;6.55;99.99
69823;SHT31;57119;52.516;13.508;2023-11-19T09:19:21;6.64;99.99
69823;SHT31;57119;52.516;13.508;2023-11-19T09:21:46;6.69;99.99
69823;SHT31;57119;52.516;13.508;2023-11-19T09:24:14;6.85;99.99
69823;SHT31;57119;52.516;13.508;2023-11-19T09:26:40;6.92;99.99
69823;SHT31;57119;52.516;13.508;2023-11-19T09:29:07;6.93;99.99
69823;SHT31;57119;52.516;13.508;2023-11-19T09:31:33;7.04;99.99
69823;SHT31;57119;52.516;13.508;2023-11-19T09:33:58;7.10;99.99
69823;SHT31;57119;52.516;13.508;2023-11-19T09:36:24;7.28;99.99
69823;SHT31;57119;52.516;13.508;2023-11-19T09:38:49;7.36;99.99
69823;SHT31;57119;52.516;13.508;2023-11-19T09:41:15;7.54;99.99
69823;SHT31;57119;52.516;13.508;2023-11-19T09:43:41;7.75;99.99
69823;SHT31;57119;52.516;13.508;2023-11-19T09:46:10;7.99;99.99
69823;SHT31;57119;52.516;13.508;2023-11-19T09:48:39;8.14;99.99
69823;SHT31;57119;52.516;13.508;2023-11-19T09:51:08;8.33;99.99
69823;SHT31;57119;52.516;13.508;2023-11-19T09:53:35;9.91;99.99
69823;SHT31;57119;52.516;13.508;2023-11-19T09:56:02;10.22;99.99
69823;SHT31;57119;52.516;13.508;2023-11-19T09:58:29;10.06;99.99
69823;SHT31;57119;52.516;13.508;2023-11-19T10:00:55;11.86;99.99
69823;SHT31;57119;52.516;13.508;2023-11-19T10:03:22;11.65;99.99
69823;SHT31;57119;52.516;13.508;2023-11-19T10:05:48;12.56;98.31
69823;SHT31;57119;52.516;13.508;2023-11-19T10:08:14;11.71;99.99
69823;SHT31;57119;52.516;13.508;2023-11-19T10:10:39;10.90;99.99
69823;SHT31;57119;52.516;13.508;2023-11-19T10:13:04;10.73;99.99
69823;SHT31;57119;52.516;13.508;2023-11-19T10:15:36;10.44;99.99
69823;SHT31;57119;52.516;13.508;2023-11-19T10:18:02;10.47;99.99
69823;SHT31;57119;52.516;13.508;2023-11-19T10:20:37;10.53;99.99
69823;SHT31;57119;52.516;13.508;2023-11-19T10:23:03;10.90;99.99
69823;SHT31;57119;52.516;13.508;2023-11-19T10:25:29;13.37;99.88
69823;SHT31;57119;52.516;13.508;2023-11-19T10:27:56;14.21;96.49
69823;SHT31;57119;52.516;13.508;2023-11-19T10:30:26;12.79;99.07
69823;SHT31;57119;52.516;13.508;2023-11-19T10:35:34;11.22;99.99
69823;SHT31;57119;52.516;13.508;2023-11-19T10:38:16;11.05;99.99
69823;SHT31;57119;52.516;13.508;2023-11-19T10:40:41;13.21;99.99
69823;SHT31;57119;52.516;13.508;2023-11-19T10:43:08;15.44;93.32
69823;SHT31;57119;52.516;13.508;2023-11-19T10:45:34;16.90;90.28
69823;SHT31;57119;52.516;13.508;2023-11-19T10:48:02;15.22;92.21
69823;SHT31;57119;52.516;13.508;2023-11-19T10:50:27;13.71;96.26
69823;SHT31;57119;52.516;13.508;2023-11-19T10:52:56;13.63;97.75
69823;SHT31;57119;52.516;13.508;2023-11-19T10:55:27;13.18;98.72
69823;SHT31;57119;52.516;13.508;2023-11-19T10:57:58;12.97;99.80
69823;SHT31;57119;52.516;13.508;2023-11-19T11:00:24;12.45;99.99
69823;SHT31;57119;52.516;13.508;2023-11-19T11:02:54;12.59;99.99
69823;SHT31;57119;52.516;13.508;2023-11-19T11:05:22;12.80;99.97
69823;SHT31;57119;52.516;13.508;2023-11-19T11:07:52;12.21;99.99
69823;SHT31;57119;52.516;13.508;2023-11-19T11:10:26;12.05;99.99
69823;SHT31;57119;52.516;13.508;2023-11-19T11:12:52;11.94;99.99
69823;SHT31;57119;52.516;13.508;2023-11-19T11:15:26;11.94;99.99
69823;SHT31;57119;52.516;13.508;2023-11-19T11:17:59;13.34;99.99
69823;SHT31;57119;52.516;13.508;2023-11-19T11:20:30;15.43;94.04
69823;SHT31;57119;52.516;13.508;2023-11-19T11:28:56;16.30;89.60
69823;SHT31;57119;52.516;13.508;2023-11-19T11:31:39;18.01;85.73
69823;SHT31;57119;52.516;13.508;2023-11-19T11:37:18;14.23;94.02
69823;SHT31;57119;52.516;13.508;2023-11-19T11:39:49;15.63;91.32
69823;SHT31;57119;52.516;13.508;2023-11-19T11:45:17;18.51;84.95
69823;SHT31;57119;52.516;13.508;2023-11-19T11:50:15;19.27;82.28
69823;SHT31;57119;52.516;13.508;2023-11-19T11:55:52;19.00;82.05
69823;SHT31;57119;52.516;13.508;2023-11-19T11:58:19;18.07;83.21
69823;SHT31;57119;52.516;13.508;2023-11-19T12:00:47;17.06;85.78
69823;SHT31;57119;52.516;13.508;2023-11-19T12:03:13;15.88;88.46
69823;SHT31;57119;52.516;13.508;2023-11-19T12:05:45;14.37;92.57
69823;SHT31;57119;52.516;13.508;2023-11-19T12:08:16;13.72;95.32
69823;SHT31;57119;52.516;13.508;2023-11-19T12:10:52;13.34;96.90
69823;SHT31;57119;52.516;13.508;2023-11-19T12:13:19;13.07;97.79
69823;SHT31;57119;52.516;13.508;2023-11-19T12:18:29;12.69;98.75
69823;SHT31;57119;52.516;13.508;2023-11-19T12:20:55;12.59;99.15
69823;SHT31;57119;52.516;13.508;2023-11-19T12:23:24;12.50;99.33
69823;SHT31;57119;52.516;13.508;2023-11-19T12:25:50;12.53;99.66
69823;SHT31;57119;52.516;13.508;2023-11-19T12:28:15;12.56;99.32
69823;SHT31;57119;52.516;13.508;2023-11-19T12:30:44;12.55;99.58
69823;SHT31;57119;52.516;13.508;2023-11-19T12:33:12;12.46;99.50
69823;SHT31;57119;52.516;13.508;2023-11-19T12:35:41;12.46;99.94
69823;SHT31;57119;52.516;13.508;2023-11-19T12:38:08;12.41;99.99
69823;SHT31;57119;52.516;13.508;2023-11-19T12:40:33;12.32;99.99
69823;SHT31;57119;52.516;13.508;2023-11-19T12:42:59;12.24;99.99
69823;SHT31;57119;52.516;13.508;2023-11-19T12:45:34;12.25;99.99
69823;SHT31;57119;52.516;13.508;2023-11-19T12:48:07;12.25;99.99
69823;SHT31;57119;52.516;13.508;2023-11-19T12:50:54;12.16;99.99
69823;SHT31;57119;52.516;13.508;2023-11-19T12:53:25;12.07;99.99
69823;SHT31;57119;52.516;13.508;2023-11-19T12:55:51;11.94;99.99
69823;SHT31;57119;52.516;13.508;2023-11-19T12:58:34;11.97;99.99
69823;SHT31;57119;52.516;13.508;2023-11-19T13:01:03;12.18;99.99
69823;SHT31;57119;52.516;13.508;2023-11-19T13:03:38;12.38;99.99
69823;SHT31;57119;52.516;13.508;2023-11-19T13:06:05;12.27;99.99
69823;SHT31;57119;52.516;13.508;2023-11-19T13:08:46;12.11;99.99
69823;SHT31;57119;52.516;13.508;2023-11-19T13:11:13;11.98;99.99
69823;SHT31;57119;52.516;13.508;2023-11-19T13:13:58;12.16;99.99
69823;SHT31;57119;52.516;13.508;2023-11-19T13:16:25;13.02;97.88
69823;SHT31;57119;52.516;13.508;2023-11-19T13:18:51;13.48;96.16
69823;SHT31;57119;52.516;13.508;2023-11-19T13:21:16;13.10;96.91
69823;SHT31;57119;52.516;13.508;2023-11-19T13:23:42;12.89;97.91
69823;SHT31;57119;52.516;13.508;2023-11-19T13:26:08;12.69;97.91
69823;SHT31;57119;52.516;13.508;2023-11-19T13:28:34;12.55;98.14
69823;SHT31;57119;52.516;13.508;2023-11-19T13:30:59;12.42;98.40
69823;SHT31;57119;52.516;13.508;2023-11-19T13:33:25;12.39;98.66
69823;SHT31;57119;52.516;13.508;2023-11-19T13:35:51;12.27;98.86
69823;SHT31;57119;52.516;13.508;2023-11-19T13:38:17;12.17;99.31
69823;SHT31;57119;52.516;13.508;2023-11-19T13:40:42;12.05;99.40
69823;SHT31;57119;52.516;13.508;2023-11-19T13:43:08;11.98;99.88
69823;SHT31;57119;52.516;13.508;2023-11-19T13:45:33;11.95;99.68
69823;SHT31;57119;52.516;13.508;2023-11-19T13:47:59;11.94;99.92
69823;SHT31;57119;52.516;13.508;2023-11-19T13:50:24;11.95;99.99
69823;SHT31;57119;52.516;13.508;2023-11-19T13:52:50;11.90;99.80
69823;SHT31;57119;52.516;13.508;2023-11-19T13:55:15;11.91;99.96
69823;SHT31;57119;52.516;13.508;2023-11-19T13:57:41;11.86;99.99
69823;SHT31;57119;52.516;13.508;2023-11-19T14:00:08;11.89;99.99
69823;SHT31;57119;52.516;13.508;2023-11-19T14:02:45;11.86;99.99
69823;SHT31;57119;52.516;13.508;2023-11-19T14:05:12;11.86;99.99
69823;SHT31;57119;52.516;13.508;2023-11-19T14:07:41;11.81;99.99
69823;SHT31;57119;52.516;13.508;2023-11-19T14:10:07;11.77;99.99
69823;SHT31;57119;52.516;13.508;2023-11-19T14:12:34;11.76;99.99
69823;SHT31;57119;52.516;13.508;2023-11-19T14:15:00;11.77;99.99
69823;SHT31;57119;52.516;13.508;2023-11-19T14:17:26;11.77;99.99
69823;SHT31;57119;52.516;13.508;2023-11-19T14:19:51;11.77;99.99
69823;SHT31;57119;52.516;13.508;2023-11-19T14:22:17;11.74;99.99
69823;SHT31;57119;52.516;13.508;2023-11-19T14:24:43;11.74;99.99
69823;SHT31;57119;52.516;13.508;2023-11-19T14:27:11;11.71;99.99
69823;SHT31;57119;52.516;13.508;2023-11-19T14:29:37;11.69;99.99
69823;SHT31;57119;52.516;13.508;2023-11-19T14:32:02;11.67;99.99
69823;SHT31;57119;52.516;13.508;2023-11-19T14:34:31;11.63;99.99
69823;SHT31;57119;52.516;13.508;2023-11-19T14:36:57;11.65;99.99
69823;SHT31;57119;52.516;13.508;2023-11-19T14:39:23;11.63;99.99
69823;SHT31;57119;52.516;13.508;2023-11-19T14:41:48;11.62;99.99
69823;SHT31;57119;52.516;13.508;2023-11-19T14:44:15;11.56;99.99
69823;SHT31;57119;52.516;13.508;2023-11-19T14:46:40;11.56;99.99
69823;SHT31;57119;52.516;13.508;2023-11-19T14:49:05;11.55;99.99
69823;SHT31;57119;52.516;13.508;2023-11-19T14:51:32;11.49;99.99
69823;SHT31;57119;52.516;13.508;2023-11-19T14:54:00;11.44;99.99
69823;SHT31;57119;52.516;13.508;2023-11-19T14:56:25;11.50;99.99
69823;SHT31;57119;52.516;13.508;2023-11-19T14:58:51;11.52;99.99
69823;SHT31;57119;52.516;13.508;2023-11-19T15:01:16;11.56;99.99
69823;SHT31;57119;52.516;13.508;2023-11-19T15:03:42;11.56;99.99
69823;SHT31;57119;52.516;13.508;2023-11-19T15:06:07;11.62;99.99
69823;SHT31;57119;52.516;13.508;2023-11-19T15:08:33;11.62;99.99
69823;SHT31;57119;52.516;13.508;2023-11-19T15:10:59;11.58;99.99
69823;SHT31;57119;52.516;13.508;2023-11-19T15:13:27;11.55;99.99
69823;SHT31;57119;52.516;13.508;2023-11-19T15:15:52;11.50;99.99
69823;SHT31;57119;52.516;13.508;2023-11-19T15:18:18;11.52;99.99
69823;SHT31;57119;52.516;13.508;2023-11-19T15:20:44;11.53;99.99
69823;SHT31;57119;52.516;13.508;2023-11-19T15:23:13;11.49;99.99
69823;SHT31;57119;52.516;13.508;2023-11-19T15:25:38;11.50;99.99
69823;SHT31;57119;52.516;13.508;2023-11-19T15:28:04;11.44;99.99
69823;SHT31;57119;52.516;13.508;2023-11-19T15:30:29;11.42;99.99
69823;SHT31;57119;52.516;13.508;2023-11-19T15:32:54;11.40;99.99
69823;SHT31;57119;52.516;13.508;2023-11-19T15:35:20;11.43;99.99
69823;SHT31;57119;52.516;13.508;2023-11-19T15:37:45;11.35;99.99
69823;SHT31;57119;52.516;13.508;2023-11-19T15:40:11;11.36;99.99
69823;SHT31;57119;52.516;13.508;2023-11-19T15:42:38;11.32;99.99
69823;SHT31;57119;52.516;13.508;2023-11-19T15:45:05;11.31;99.99